sensor_id;sensor_type;location;lat;lon;timestamp;pressure;altitude;pressure_sealevel;temperature;humidity
51986;BME280;38002;53.296;6.600;2023-02-16T00:03:57;102479.16;;;5.40;84.05
51986;BME280;38002;53.296;6.600;2023-02-16T00:08:58;102481.16;;;5.36;83.94
51986;BME280;38002;53.296;6.600;2023-02-16T00:13:59;102478.66;;;5.33;84.67
51986;BME280;38002;53.296;6.600;2023-02-16T00:18:59;102482.28;;;5.32;84.16
51986;BME280;38002;53.296;6.600;2023-02-16T00:24:00;102479.78;;;5.29;83.88
51986;BME280;38002;53.296;6.600;2023-02-16T00:29:00;102478.03;;;5.28;85.18
51986;BME280;38002;53.296;6.600;2023-02-16T00:34:21;102472.84;;;5.25;84.96
51986;BME280;38002;53.296;6.600;2023-02-16T00:39:24;102463.94;;;5.23;84.43
51986;BME280;38002;53.296;6.600;2023-02-16T00:44:35;102467.69;;;5.21;85.10
51986;BME280;38002;53.296;6.600;2023-02-16T00:49:36;102471.53;;;5.17;84.76
51986;BME280;38002;53.296;6.600;2023-02-16T00:54:36;102469.09;;;5.12;85.14
51986;BME280;38002;53.296;6.600;2023-02-16T00:59:37;102477.34;;;5.09;85.03
51986;BME280;38002;53.296;6.600;2023-02-16T01:04:37;102475.00;;;5.03;84.68
51986;BME280;38002;53.296;6.600;2023-02-16T01:09:38;102470.81;;;4.97;85.26
51986;BME280;38002;53.296;6.600;2023-02-16T01:14:57;102457.59;;;4.93;85.08
51986;BME280;38002;53.296;6.600;2023-02-16T01:19:57;102449.78;;;4.88;85.24
51986;BME280;38002;53.296;6.600;2023-02-16T01:24:57;102443.63;;;4.86;85.34
51986;BME280;38002;53.296;6.600;2023-02-16T01:29:58;102445.44;;;4.86;85.26
51986;BME280;38002;53.296;6.600;2023-02-16T01:34:58;102441.00;;;4.85;85.35
51986;BME280;38002;53.296;6.600;2023-02-16T01:39:59;102434.06;;;4.81;85.25
51986;BME280;38002;53.296;6.600;2023-02-16T01:45:18;102434.13;;;4.79;85.86
51986;BME280;38002;53.296;6.600;2023-02-16T01:50:25;102425.34;;;4.76;85.16
51986;BME280;38002;53.296;6.600;2023-02-16T01:55:33;102426.31;;;4.75;85.64
51986;BME280;38002;53.296;6.600;2023-02-16T02:05:49;102415.72;;;4.72;85.68
51986;BME280;38002;53.296;6.600;2023-02-16T02:15:56;102408.50;;;4.72;85.75
51986;BME280;38002;53.296;6.600;2023-02-16T02:27:02;102398.78;;;4.70;86.23
51986;BME280;38002;53.296;6.600;2023-02-16T02:32:17;102406.69;;;4.73;85.73
51986;BME280;38002;53.296;6.600;2023-02-16T02:37:54;102397.53;;;4.75;86.13
51986;BME280;38002;53.296;6.600;2023-02-16T02:48:18;102393.97;;;4.75;87.18
51986;BME280;38002;53.296;6.600;2023-02-16T02:53:19;102377.03;;;4.73;86.28
51986;BME280;38002;53.296;6.600;2023-02-16T02:58:20;102368.94;;;4.73;86.02
51986;BME280;38002;53.296;6.600;2023-02-16T03:03:45;102370.69;;;4.74;85.86
51986;BME280;38002;53.296;6.600;2023-02-16T03:08:53;102372.53;;;4.73;85.66
51986;BME280;38002;53.296;6.600;2023-02-16T03:13:59;102355.41;;;4.74;86.24
51986;BME280;38002;53.296;6.600;2023-02-16T03:19:02;102360.34;;;4.82;85.94
51986;BME280;38002;53.296;6.600;2023-02-16T03:24:26;102351.88;;;4.88;86.51
51986;BME280;38002;53.296;6.600;2023-02-16T03:29:47;102340.75;;;4.94;85.82
51986;BME280;38002;53.296;6.600;2023-02-16T03:34:48;102345.81;;;5.00;86.06
51986;BME280;38002;53.296;6.600;2023-02-16T03:39:49;102349.94;;;5.06;86.41
51986;BME280;38002;53.296;6.600;2023-02-16T03:45:08;102340.56;;;5.13;85.92
51986;BME280;38002;53.296;6.600;2023-02-16T03:50:08;102341.03;;;5.19;85.92
51986;BME280;38002;53.296;6.600;2023-02-16T03:55:09;102343.47;;;5.24;85.71
51986;BME280;38002;53.296;6.600;2023-02-16T04:00:10;102337.03;;;5.26;85.35
51986;BME280;38002;53.296;6.600;2023-02-16T04:05:11;102338.59;;;5.30;85.54
51986;BME280;38002;53.296;6.600;2023-02-16T04:10:11;102334.75;;;5.34;85.58
51986;BME280;38002;53.296;6.600;2023-02-16T04:15:15;102347.09;;;5.38;85.95
51986;BME280;38002;53.296;6.600;2023-02-16T04:20:21;102341.31;;;5.44;85.10
51986;BME280;38002;53.296;6.600;2023-02-16T04:25:23;102321.38;;;5.47;85.88
51986;BME280;38002;53.296;6.600;2023-02-16T04:30:26;102335.34;;;5.54;85.95
51986;BME280;38002;53.296;6.600;2023-02-16T04:35:27;102332.28;;;5.60;86.28
51986;BME280;38002;53.296;6.600;2023-02-16T04:40:27;102332.00;;;5.64;85.85
51986;BME280;38002;53.296;6.600;2023-02-16T04:45:28;102330.06;;;5.66;86.03
51986;BME280;38002;53.296;6.600;2023-02-16T04:50:28;102345.31;;;5.67;86.01
51986;BME280;38002;53.296;6.600;2023-02-16T04:55:29;102334.44;;;5.69;86.28
51986;BME280;38002;53.296;6.600;2023-02-16T05:00:30;102323.50;;;5.70;86.02
51986;BME280;38002;53.296;6.600;2023-02-16T05:05:30;102323.16;;;5.76;85.97
51986;BME280;38002;53.296;6.600;2023-02-16T05:10:31;102323.06;;;5.78;86.20
51986;BME280;38002;53.296;6.600;2023-02-16T05:15:31;102328.34;;;5.79;85.98
51986;BME280;38002;53.296;6.600;2023-02-16T05:20:32;102330.16;;;5.79;85.88
51986;BME280;38002;53.296;6.600;2023-02-16T05:25:51;102335.56;;;5.79;86.32
51986;BME280;38002;53.296;6.600;2023-02-16T05:30:52;102340.97;;;5.79;86.29
51986;BME280;38002;53.296;6.600;2023-02-16T05:35:53;102322.00;;;5.80;85.77
51986;BME280;38002;53.296;6.600;2023-02-16T05:40:53;102329.13;;;5.81;86.43
51986;BME280;38002;53.296;6.600;2023-02-16T05:45:54;102333.47;;;5.84;86.31
51986;BME280;38002;53.296;6.600;2023-02-16T05:50:54;102323.53;;;5.84;86.53
51986;BME280;38002;53.296;6.600;2023-02-16T05:55:54;102329.63;;;5.88;87.01
51986;BME280;38002;53.296;6.600;2023-02-16T06:00:55;102324.06;;;5.91;86.54
51986;BME280;38002;53.296;6.600;2023-02-16T06:05:57;102333.78;;;5.93;86.81
51986;BME280;38002;53.296;6.600;2023-02-16T06:10:58;102312.09;;;5.95;86.19
51986;BME280;38002;53.296;6.600;2023-02-16T06:15:59;102300.31;;;5.96;87.22
51986;BME280;38002;53.296;6.600;2023-02-16T06:20:59;102313.81;;;5.96;86.84
51986;BME280;38002;53.296;6.600;2023-02-16T06:26:00;102310.94;;;5.99;86.73
51986;BME280;38002;53.296;6.600;2023-02-16T06:31:00;102309.00;;;6.01;86.63
51986;BME280;38002;53.296;6.600;2023-02-16T06:36:01;102322.41;;;6.03;86.70
51986;BME280;38002;53.296;6.600;2023-02-16T06:41:02;102326.94;;;6.02;86.72
51986;BME280;38002;53.296;6.600;2023-02-16T06:46:02;102314.19;;;6.04;86.41
51986;BME280;38002;53.296;6.600;2023-02-16T06:51:03;102326.75;;;6.05;86.77
51986;BME280;38002;53.296;6.600;2023-02-16T06:56:04;102317.69;;;6.06;86.76
51986;BME280;38002;53.296;6.600;2023-02-16T07:01:04;102328.56;;;6.05;87.44
51986;BME280;38002;53.296;6.600;2023-02-16T07:06:05;102338.41;;;6.06;86.78
51986;BME280;38002;53.296;6.600;2023-02-16T07:11:05;102344.69;;;6.06;87.25
51986;BME280;38002;53.296;6.600;2023-02-16T07:16:06;102340.81;;;6.10;87.39
51986;BME280;38002;53.296;6.600;2023-02-16T07:21:07;102339.66;;;6.14;87.14
51986;BME280;38002;53.296;6.600;2023-02-16T07:26:07;102339.47;;;6.17;87.83
51986;BME280;38002;53.296;6.600;2023-02-16T07:31:10;102344.56;;;6.22;87.74
51986;BME280;38002;53.296;6.600;2023-02-16T07:36:12;102348.81;;;6.26;87.24
51986;BME280;38002;53.296;6.600;2023-02-16T07:41:12;102353.91;;;6.30;87.50
51986;BME280;38002;53.296;6.600;2023-02-16T07:46:13;102350.06;;;6.34;87.61
51986;BME280;38002;53.296;6.600;2023-02-16T07:51:26;102353.31;;;6.39;87.74
51986;BME280;38002;53.296;6.600;2023-02-16T07:56:30;102359.22;;;6.46;87.31
51986;BME280;38002;53.296;6.600;2023-02-16T08:01:31;102358.16;;;6.49;87.11
51986;BME280;38002;53.296;6.600;2023-02-16T08:06:33;102372.22;;;6.54;87.16
51986;BME280;38002;53.296;6.600;2023-02-16T08:11:34;102366.53;;;6.58;87.13
51986;BME280;38002;53.296;6.600;2023-02-16T08:16:36;102371.72;;;6.61;87.29
51986;BME280;38002;53.296;6.600;2023-02-16T08:21:36;102378.56;;;6.67;88.44
51986;BME280;38002;53.296;6.600;2023-02-16T08:26:40;102366.81;;;6.68;87.52
51986;BME280;38002;53.296;6.600;2023-02-16T08:31:43;102370.84;;;6.75;87.67
51986;BME280;38002;53.296;6.600;2023-02-16T08:36:46;102374.31;;;6.77;88.22
51986;BME280;38002;53.296;6.600;2023-02-16T08:41:52;102367.16;;;6.76;88.00
51986;BME280;38002;53.296;6.600;2023-02-16T08:46:55;102371.75;;;6.88;88.37
51986;BME280;38002;53.296;6.600;2023-02-16T08:51:58;102377.75;;;6.93;87.71
51986;BME280;38002;53.296;6.600;2023-02-16T08:57:00;102367.66;;;6.95;87.95
51986;BME280;38002;53.296;6.600;2023-02-16T09:02:02;102375.47;;;7.00;88.43
51986;BME280;38002;53.296;6.600;2023-02-16T09:07:03;102370.72;;;7.03;88.21
51986;BME280;38002;53.296;6.600;2023-02-16T09:12:04;102372.94;;;7.11;88.28
51986;BME280;38002;53.296;6.600;2023-02-16T09:17:04;102373.38;;;7.17;88.24
51986;BME280;38002;53.296;6.600;2023-02-16T09:22:05;102374.72;;;7.24;88.11
51986;BME280;38002;53.296;6.600;2023-02-16T09:27:05;102381.53;;;7.30;87.50
51986;BME280;38002;53.296;6.600;2023-02-16T09:32:06;102374.94;;;7.34;88.34
51986;BME280;38002;53.296;6.600;2023-02-16T09:37:08;102389.69;;;7.43;87.40
51986;BME280;38002;53.296;6.600;2023-02-16T09:47:49;102401.13;;;7.73;87.71
51986;BME280;38002;53.296;6.600;2023-02-16T09:58:11;102402.78;;;7.88;87.71
51986;BME280;38002;53.296;6.600;2023-02-16T10:03:38;102412.50;;;7.91;88.36
51986;BME280;38002;53.296;6.600;2023-02-16T10:08:43;102410.91;;;7.88;87.03
51986;BME280;38002;53.296;6.600;2023-02-16T10:13:49;102402.13;;;7.85;87.65
51986;BME280;38002;53.296;6.600;2023-02-16T10:18:53;102397.78;;;7.82;87.21
51986;BME280;38002;53.296;6.600;2023-02-16T10:23:59;102395.06;;;7.82;87.41
51986;BME280;38002;53.296;6.600;2023-02-16T10:29:13;102382.16;;;7.86;87.07
51986;BME280;38002;53.296;6.600;2023-02-16T10:55:20;102429.88;;;8.01;87.47
51986;BME280;38002;53.296;6.600;2023-02-16T11:00:27;102426.19;;;8.02;87.48
51986;BME280;38002;53.296;6.600;2023-02-16T11:05:34;102427.06;;;8.02;88.25
51986;BME280;38002;53.296;6.600;2023-02-16T11:10:50;102420.66;;;8.03;88.38
51986;BME280;38002;53.296;6.600;2023-02-16T11:16:05;102411.97;;;7.98;89.37
51986;BME280;38002;53.296;6.600;2023-02-16T11:21:10;102423.59;;;8.13;88.41
51986;BME280;38002;53.296;6.600;2023-02-16T11:31:31;102406.03;;;8.18;88.27
51986;BME280;38002;53.296;6.600;2023-02-16T11:36:38;102414.16;;;8.18;88.64
51986;BME280;38002;53.296;6.600;2023-02-16T11:47:24;102391.53;;;8.19;88.90
51986;BME280;38002;53.296;6.600;2023-02-16T11:52:28;102380.22;;;8.26;88.25
51986;BME280;38002;53.296;6.600;2023-02-16T11:57:31;102355.59;;;8.29;88.37
51986;BME280;38002;53.296;6.600;2023-02-16T12:03:03;102351.72;;;8.33;89.54
51986;BME280;38002;53.296;6.600;2023-02-16T12:18:58;102325.59;;;8.44;89.24
51986;BME280;38002;53.296;6.600;2023-02-16T12:45:26;102322.34;;;8.99;88.86
51986;BME280;38002;53.296;6.600;2023-02-16T12:50:32;102313.16;;;9.13;87.78
51986;BME280;38002;53.296;6.600;2023-02-16T12:55:41;102302.59;;;9.32;87.83
51986;BME280;38002;53.296;6.600;2023-02-16T13:05:52;102285.16;;;9.70;86.69
51986;BME280;38002;53.296;6.600;2023-02-16T13:11:06;102277.53;;;9.75;85.58
51986;BME280;38002;53.296;6.600;2023-02-16T13:16:15;102283.78;;;9.75;85.46
51986;BME280;38002;53.296;6.600;2023-02-16T13:43:28;102233.28;;;10.06;84.68
51986;BME280;38002;53.296;6.600;2023-02-16T13:48:44;102226.03;;;10.18;83.94
51986;BME280;38002;53.296;6.600;2023-02-16T13:53:54;102222.53;;;10.27;84.59
51986;BME280;38002;53.296;6.600;2023-02-16T13:58:58;102210.06;;;10.24;82.98
51986;BME280;38002;53.296;6.600;2023-02-16T14:04:00;102207.84;;;10.18;83.46
51986;BME280;38002;53.296;6.600;2023-02-16T14:14:44;102200.81;;;10.16;82.76
51986;BME280;38002;53.296;6.600;2023-02-16T14:19:59;102198.31;;;10.13;80.03
51986;BME280;38002;53.296;6.600;2023-02-16T14:25:05;102192.88;;;10.13;82.97
51986;BME280;38002;53.296;6.600;2023-02-16T14:30:41;102192.66;;;10.05;80.60
51986;BME280;38002;53.296;6.600;2023-02-16T14:41:05;102190.69;;;9.95;83.27
51986;BME280;38002;53.296;6.600;2023-02-16T14:56:53;102191.81;;;9.82;82.28
51986;BME280;38002;53.296;6.600;2023-02-16T15:02:34;102189.84;;;9.73;81.27
51986;BME280;38002;53.296;6.600;2023-02-16T15:07:37;102186.78;;;9.66;82.91
51986;BME280;38002;53.296;6.600;2023-02-16T15:12:39;102184.44;;;9.62;82.96
51986;BME280;38002;53.296;6.600;2023-02-16T15:17:44;102186.75;;;9.55;81.77
51986;BME280;38002;53.296;6.600;2023-02-16T15:23:27;102189.22;;;9.47;83.55
51986;BME280;38002;53.296;6.600;2023-02-16T15:28:36;102188.84;;;9.29;85.15
51986;BME280;38002;53.296;6.600;2023-02-16T15:33:40;102185.34;;;9.16;85.38
51986;BME280;38002;53.296;6.600;2023-02-16T15:38:54;102172.00;;;9.02;86.43
51986;BME280;38002;53.296;6.600;2023-02-16T15:43:56;102172.84;;;8.91;85.86
51986;BME280;38002;53.296;6.600;2023-02-16T15:49:09;102169.00;;;8.83;87.23
51986;BME280;38002;53.296;6.600;2023-02-16T15:54:18;102163.44;;;8.73;91.70
51986;BME280;38002;53.296;6.600;2023-02-16T16:04:26;102152.56;;;8.62;88.28
51986;BME280;38002;53.296;6.600;2023-02-16T16:09:29;102145.50;;;8.59;88.10
51986;BME280;38002;53.296;6.600;2023-02-16T16:14:33;102134.78;;;8.58;88.13
51986;BME280;38002;53.296;6.600;2023-02-16T16:19:36;102128.63;;;8.56;89.19
51986;BME280;38002;53.296;6.600;2023-02-16T16:24:37;102109.13;;;8.51;90.11
51986;BME280;38002;53.296;6.600;2023-02-16T16:34:40;102103.31;;;8.44;89.80
51986;BME280;38002;53.296;6.600;2023-02-16T16:39:40;102095.78;;;8.37;93.46
51986;BME280;38002;53.296;6.600;2023-02-16T16:44:51;102094.41;;;8.31;92.90
51986;BME280;38002;53.296;6.600;2023-02-16T16:49:59;102095.44;;;8.29;91.69
51986;BME280;38002;53.296;6.600;2023-02-16T16:55:19;102096.47;;;8.28;93.38
51986;BME280;38002;53.296;6.600;2023-02-16T17:00:24;102090.53;;;8.23;93.15
51986;BME280;38002;53.296;6.600;2023-02-16T17:05:25;102096.91;;;8.21;94.96
51986;BME280;38002;53.296;6.600;2023-02-16T17:10:25;102089.03;;;8.18;92.06
51986;BME280;38002;53.296;6.600;2023-02-16T17:15:30;102089.03;;;8.18;92.43
51986;BME280;38002;53.296;6.600;2023-02-16T17:20:33;102085.56;;;8.16;94.37
51986;BME280;38002;53.296;6.600;2023-02-16T17:25:34;102081.09;;;8.15;92.76
51986;BME280;38002;53.296;6.600;2023-02-16T17:30:35;102069.53;;;8.13;93.68
51986;BME280;38002;53.296;6.600;2023-02-16T17:35:40;102076.81;;;8.13;92.94
51986;BME280;38002;53.296;6.600;2023-02-16T17:40:41;102067.81;;;8.12;93.68
51986;BME280;38002;53.296;6.600;2023-02-16T17:45:44;102055.22;;;8.11;93.76
51986;BME280;38002;53.296;6.600;2023-02-16T17:50:45;102049.09;;;8.09;94.47
51986;BME280;38002;53.296;6.600;2023-02-16T17:55:47;102050.81;;;8.10;94.82
51986;BME280;38002;53.296;6.600;2023-02-16T18:00:48;102047.09;;;8.11;95.98
51986;BME280;38002;53.296;6.600;2023-02-16T18:05:48;102050.56;;;8.13;94.55
51986;BME280;38002;53.296;6.600;2023-02-16T18:10:53;102054.78;;;8.17;95.01
51986;BME280;38002;53.296;6.600;2023-02-16T18:16:01;102054.78;;;8.17;96.24
51986;BME280;38002;53.296;6.600;2023-02-16T18:21:06;102058.34;;;8.18;95.71
51986;BME280;38002;53.296;6.600;2023-02-16T18:26:06;102043.94;;;8.17;94.63
51986;BME280;38002;53.296;6.600;2023-02-16T18:31:07;102031.25;;;8.18;94.38
51986;BME280;38002;53.296;6.600;2023-02-16T18:36:08;102030.91;;;8.23;94.63
51986;BME280;38002;53.296;6.600;2023-02-16T18:41:09;102020.06;;;8.23;94.62
51986;BME280;38002;53.296;6.600;2023-02-16T18:46:09;102017.13;;;8.26;96.27
51986;BME280;38002;53.296;6.600;2023-02-16T18:51:13;102014.41;;;8.26;95.89
51986;BME280;38002;53.296;6.600;2023-02-16T18:56:15;102013.31;;;8.28;95.47
51986;BME280;38002;53.296;6.600;2023-02-16T19:01:36;102006.72;;;8.32;95.94
51986;BME280;38002;53.296;6.600;2023-02-16T19:06:37;102012.84;;;8.34;97.17
51986;BME280;38002;53.296;6.600;2023-02-16T19:11:37;102000.28;;;8.33;96.63
51986;BME280;38002;53.296;6.600;2023-02-16T19:16:39;102000.06;;;8.36;96.15
51986;BME280;38002;53.296;6.600;2023-02-16T19:21:39;101999.94;;;8.38;96.12
51986;BME280;38002;53.296;6.600;2023-02-16T19:26:40;102003.41;;;8.40;97.80
51986;BME280;38002;53.296;6.600;2023-02-16T19:31:40;102013.97;;;8.43;96.46
51986;BME280;38002;53.296;6.600;2023-02-16T19:36:41;102011.28;;;8.43;97.42
51986;BME280;38002;53.296;6.600;2023-02-16T19:41:42;102009.19;;;8.46;96.96
51986;BME280;38002;53.296;6.600;2023-02-16T19:46:43;102011.03;;;8.46;96.61
51986;BME280;38002;53.296;6.600;2023-02-16T19:51:43;102016.34;;;8.47;98.00
51986;BME280;38002;53.296;6.600;2023-02-16T19:56:46;102016.22;;;8.49;96.35
51986;BME280;38002;53.296;6.600;2023-02-16T20:01:47;102007.22;;;8.48;96.17
51986;BME280;38002;53.296;6.600;2023-02-16T20:06:48;101995.53;;;8.48;96.78
51986;BME280;38002;53.296;6.600;2023-02-16T20:11:49;101987.38;;;8.48;97.81
51986;BME280;38002;53.296;6.600;2023-02-16T20:16:50;101986.41;;;8.49;97.11
51986;BME280;38002;53.296;6.600;2023-02-16T20:21:51;101972.59;;;8.52;98.15
51986;BME280;38002;53.296;6.600;2023-02-16T20:26:51;101978.91;;;8.52;97.28
51986;BME280;38002;53.296;6.600;2023-02-16T20:31:54;101965.22;;;8.54;97.78
51986;BME280;38002;53.296;6.600;2023-02-16T20:36:55;101957.94;;;8.54;98.14
51986;BME280;38002;53.296;6.600;2023-02-16T20:41:56;101952.50;;;8.54;98.13
51986;BME280;38002;53.296;6.600;2023-02-16T20:46:57;101945.25;;;8.55;97.90
51986;BME280;38002;53.296;6.600;2023-02-16T20:51:58;101950.56;;;8.56;98.48
51986;BME280;38002;53.296;6.600;2023-02-16T20:56:58;101956.84;;;8.57;98.22
51986;BME280;38002;53.296;6.600;2023-02-16T21:01:59;101973.84;;;8.59;98.54
51986;BME280;38002;53.296;6.600;2023-02-16T21:06:59;101974.84;;;8.58;98.38
51986;BME280;38002;53.296;6.600;2023-02-16T21:11:59;101965.69;;;8.59;97.69
51986;BME280;38002;53.296;6.600;2023-02-16T21:17:00;101963.75;;;8.61;97.89
51986;BME280;38002;53.296;6.600;2023-02-16T21:22:00;101943.91;;;8.60;97.79
51986;BME280;38002;53.296;6.600;2023-02-16T21:27:01;101939.34;;;8.61;99.23
51986;BME280;38002;53.296;6.600;2023-02-16T21:32:02;101937.63;;;8.60;98.44
51986;BME280;38002;53.296;6.600;2023-02-16T21:37:03;101933.81;;;8.62;98.52
51986;BME280;38002;53.296;6.600;2023-02-16T21:42:04;101925.91;;;8.59;98.38
51986;BME280;38002;53.296;6.600;2023-02-16T21:47:04;101934.91;;;8.60;97.42
51986;BME280;38002;53.296;6.600;2023-02-16T21:52:24;101946.63;;;8.60;98.52
51986;BME280;38002;53.296;6.600;2023-02-16T21:57:25;101955.50;;;8.62;98.39
51986;BME280;38002;53.296;6.600;2023-02-16T22:02:25;101952.66;;;8.64;98.03
51986;BME280;38002;53.296;6.600;2023-02-16T22:07:25;101953.63;;;8.63;97.07
51986;BME280;38002;53.296;6.600;2023-02-16T22:12:26;101941.78;;;8.64;97.73
51986;BME280;38002;53.296;6.600;2023-02-16T22:17:27;101939.22;;;8.62;97.18
51986;BME280;38002;53.296;6.600;2023-02-16T22:22:27;101935.50;;;8.63;98.13
51986;BME280;38002;53.296;6.600;2023-02-16T22:27:27;101926.41;;;8.64;98.25
51986;BME280;38002;53.296;6.600;2023-02-16T22:32:28;101910.13;;;8.64;97.66
51986;BME280;38002;53.296;6.600;2023-02-16T22:37:31;101903.13;;;8.62;97.63
51986;BME280;38002;53.296;6.600;2023-02-16T22:42:31;101912.94;;;8.63;97.72
51986;BME280;38002;53.296;6.600;2023-02-16T22:47:32;101914.69;;;8.64;96.69
51986;BME280;38002;53.296;6.600;2023-02-16T22:52:32;101909.25;;;8.64;97.38
51986;BME280;38002;53.296;6.600;2023-02-16T22:57:37;101894.72;;;8.65;97.96
51986;BME280;38002;53.296;6.600;2023-02-16T23:02:38;101898.41;;;8.64;96.64
51986;BME280;38002;53.296;6.600;2023-02-16T23:07:38;101902.09;;;8.63;97.55
51986;BME280;38002;53.296;6.600;2023-02-16T23:12:39;101897.56;;;8.63;96.38
51986;BME280;38002;53.296;6.600;2023-02-16T23:17:39;101910.13;;;8.64;96.34
51986;BME280;38002;53.296;6.600;2023-02-16T23:22:40;101902.88;;;8.65;97.17
51986;BME280;38002;53.296;6.600;2023-02-16T23:27:40;101904.72;;;8.64;97.24
51986;BME280;38002;53.296;6.600;2023-02-16T23:32:40;101895.00;;;8.62;97.79
51986;BME280;38002;53.296;6.600;2023-02-16T23:37:42;101896.84;;;8.61;96.89
51986;BME280;38002;53.296;6.600;2023-02-16T23:42:43;101893.97;;;8.63;96.92
51986;BME280;38002;53.296;6.600;2023-02-16T23:47:43;101897.56;;;8.63;96.47
51986;BME280;38002;53.296;6.600;2023-02-16T23:52:44;101878.72;;;8.62;97.15
51986;BME280;38002;53.296;6.600;2023-02-16T23:57:44;101879.44;;;8.64;98.24
